Time,TemperatureF,DewpointF,PressureIn,WindDirection,WindDirectionDegrees,WindSpeedMPH,WindSpeedGustMPH,Humidity,HourlyPrecipIn,Conditions,Clouds,dailyrainin,SoftwareType,DateUTC
2013-01-19 00:02:00,40.0,33.0,29.88,WSW,252,3.0,12.0,75,0.00,,,0.02,,2013-01-19 06:02:00,
2013-01-19 00:12:00,40.0,33.0,29.88,WSW,252,3.0,12.0,75,0.00,,,0.02,,2013-01-19 06:12:00,
2013-01-19 00:22:00,40.0,33.0,29.88,WSW,243,4.0,12.0,76,0.00,,,0.02,,2013-01-19 06:22:00,
2013-01-19 00:32:00,39.0,32.0,29.87,WSW,247,3.0,12.0,76,0.00,,,0.02,,2013-01-19 06:32:00,
2013-01-19 00:43:00,39.0,32.0,29.87,WSW,247,3.0,12.0,76,0.00,,,0.02,,2013-01-19 06:43:00,
2013-01-19 00:52:00,40.0,33.0,29.88,WSW,247,5.0,13.0,76,0.00,,,0.02,,2013-01-19 06:52:00,
2013-01-19 01:02:00,39.0,32.0,29.88,WSW,239,4.0,15.0,76,0.00,,,0.02,,2013-01-19 07:02:00,
2013-01-19 01:12:00,39.0,32.0,29.88,WSW,239,4.0,15.0,76,0.00,,,0.02,,2013-01-19 07:12:00,
2013-01-19 01:22:00,39.0,32.0,29.88,SW,236,3.0,13.0,76,0.00,,,0.02,,2013-01-19 07:22:00,
2013-01-19 01:32:00,39.0,32.0,29.88,WSW,244,3.0,10.0,77,0.00,,,0.02,,2013-01-19 07:32:00,
2013-01-19 01:42:00,39.0,32.0,29.88,WSW,244,3.0,10.0,77,0.00,,,0.02,,2013-01-19 07:42:00,
2013-01-19 01:52:00,39.0,33.0,29.88,WSW,257,3.0,8.0,78,0.00,,,0.02,,2013-01-19 07:52:00,
2013-01-19 02:02:00,39.0,33.0,29.88,WSW,258,3.0,10.0,78,0.00,,,0.02,,2013-01-19 08:02:00,
2013-01-19 02:12:00,39.0,33.0,29.88,WSW,258,3.0,10.0,78,0.00,,,0.02,,2013-01-19 08:12:00,
2013-01-19 02:22:00,39.0,33.0,29.89,WSW,241,3.0,13.0,78,0.00,,,0.02,,2013-01-19 08:22:00,
2013-01-19 02:32:00,39.0,33.0,29.89,West,268,3.0,15.0,79,0.00,,,0.02,,2013-01-19 08:32:00,
2013-01-19 02:43:00,39.0,33.0,29.89,West,268,3.0,15.0,79,0.00,,,0.02,,2013-01-19 08:43:00,
2013-01-19 02:52:00,39.0,33.0,29.89,West,260,3.0,8.0,79,0.00,,,0.02,,2013-01-19 08:52:00,
2013-01-19 03:02:00,39.0,33.0,29.89,WSW,257,3.0,10.0,79,0.00,,,0.02,,2013-01-19 09:02:00,
2013-01-19 03:12:00,39.0,33.0,29.89,WSW,257,3.0,10.0,79,0.00,,,0.02,,2013-01-19 09:12:00,
2013-01-19 03:22:00,39.0,33.0,29.88,WSW,246,3.0,12.0,79,0.00,,,0.02,,2013-01-19 09:22:00,
2013-01-19 03:32:00,39.0,33.0,29.88,WSW,251,2.0,7.0,79,0.00,,,0.02,,2013-01-19 09:32:00,
2013-01-19 03:42:00,39.0,33.0,29.88,WSW,251,2.0,7.0,79,0.00,,,0.02,,2013-01-19 09:42:00,
2013-01-19 03:52:00,39.0,33.0,29.88,WSW,239,2.0,6.0,79,0.00,,,0.02,,2013-01-19 09:52:00,
2013-01-19 04:02:00,39.0,33.0,29.87,WSW,250,2.0,6.0,79,0.00,,,0.02,,2013-01-19 10:02:00,
2013-01-19 04:12:00,39.0,33.0,29.87,WSW,250,2.0,6.0,79,0.00,,,0.02,,2013-01-19 10:12:00,
2013-01-19 04:22:00,40.0,34.0,29.86,SW,219,3.0,12.0,79,0.00,,,0.02,,2013-01-19 10:22:00,
2013-01-19 04:32:00,40.0,33.0,29.86,SW,232,3.0,10.0,77,0.00,,,0.02,,2013-01-19 10:32:00,
2013-01-19 04:42:00,40.0,33.0,29.86,SW,232,3.0,10.0,77,0.00,,,0.02,,2013-01-19 10:42:00,
2013-01-19 04:52:00,40.0,33.0,29.86,WSW,248,3.0,16.0,77,0.00,,,0.02,,2013-01-19 10:52:00,
2013-01-19 05:03:00,40.0,34.0,29.85,WSW,247,2.0,6.0,78,0.00,,,0.02,,2013-01-19 11:03:00,
2013-01-19 05:12:00,40.0,34.0,29.85,WSW,247,2.0,6.0,78,0.00,,,0.02,,2013-01-19 11:12:00,
2013-01-19 06:48:00,39.0,33.0,29.83,WSW,240,1.0,5.0,79,0.00,,,0.02,,2013-01-19 12:48:00,
2013-01-19 06:53:00,39.0,33.0,29.84,WSW,246,2.0,5.0,79,0.00,,,0.02,,2013-01-19 12:53:00,
2013-01-19 07:03:00,39.0,33.0,29.83,SW,219,2.0,8.0,78,0.00,,,0.02,,2013-01-19 13:03:00,
2013-01-19 07:12:00,39.0,33.0,29.83,SW,219,2.0,8.0,78,0.00,,,0.02,,2013-01-19 13:12:00,
2013-01-19 07:22:00,39.0,33.0,29.83,WSW,245,3.0,7.0,78,0.00,,,0.02,,2013-01-19 13:22:00,
2013-01-19 07:33:00,39.0,33.0,29.83,SW,235,2.0,7.0,78,0.00,,,0.02,,2013-01-19 13:33:00,
2013-01-19 07:42:00,39.0,33.0,29.83,SW,235,2.0,7.0,78,0.00,,,0.02,,2013-01-19 13:42:00,
2013-01-19 07:53:00,39.0,33.0,29.83,WSW,245,3.0,12.0,78,0.00,,,0.02,,2013-01-19 13:53:00,
2013-01-19 08:02:00,39.0,33.0,29.82,WSW,242,2.0,6.0,78,0.00,,,0.02,,2013-01-19 14:02:00,
2013-01-19 08:12:00,39.0,33.0,29.82,WSW,242,2.0,6.0,78,0.00,,,0.02,,2013-01-19 14:12:00,
2013-01-19 08:23:00,39.0,33.0,29.83,WSW,241,3.0,13.0,78,0.00,,,0.02,,2013-01-19 14:23:00,
2013-01-19 08:34:00,39.0,33.0,29.82,SW,236,3.0,8.0,78,0.00,,,0.02,,2013-01-19 14:34:00,
2013-01-19 08:43:00,39.0,33.0,29.82,SW,236,3.0,8.0,78,0.00,,,0.02,,2013-01-19 14:43:00,
2013-01-19 08:53:00,39.0,33.0,29.82,WSW,258,3.0,7.0,78,0.00,,,0.02,,2013-01-19 14:53:00,
2013-01-19 09:03:00,39.0,33.0,29.82,WSW,244,4.0,10.0,78,0.00,,,0.02,,2013-01-19 15:03:00,
2013-01-19 09:12:00,39.0,33.0,29.82,WSW,244,4.0,10.0,78,0.00,,,0.02,,2013-01-19 15:12:00,
2013-01-19 09:23:00,40.0,34.0,29.82,WSW,243,4.0,13.0,78,0.00,,,0.02,,2013-01-19 15:23:00,
2013-01-19 09:33:00,40.0,34.0,29.83,WSW,251,5.0,12.0,78,0.00,,,0.02,,2013-01-19 15:33:00,
2013-01-19 09:43:00,40.0,34.0,29.83,WSW,251,5.0,12.0,78,0.00,,,0.02,,2013-01-19 15:43:00,
2013-01-19 09:53:00,40.0,33.0,29.82,WSW,243,2.0,7.0,77,0.00,,,0.02,,2013-01-19 15:53:00,
2013-01-19 10:03:00,41.0,34.0,29.81,WSW,241,3.0,7.0,77,0.00,,,0.02,,2013-01-19 16:03:00,
2013-01-19 10:13:00,41.0,34.0,29.81,WSW,241,3.0,7.0,77,0.00,,,0.02,,2013-01-19 16:13:00,
2013-01-19 10:23:00,41.0,34.0,29.82,SW,235,3.0,12.0,77,0.00,,,0.02,,2013-01-19 16:23:00,
2013-01-19 10:33:00,41.0,34.0,29.80,WSW,249,2.0,10.0,76,0.00,,,0.02,,2013-01-19 16:33:00,
2013-01-19 10:43:00,41.0,34.0,29.80,WSW,249,2.0,10.0,76,0.00,,,0.02,,2013-01-19 16:43:00,
2013-01-19 10:53:00,41.0,34.0,29.79,West,268,3.0,8.0,76,0.00,,,0.02,,2013-01-19 16:53:00,
2013-01-19 11:03:00,41.0,34.0,29.78,South,186,3.0,7.0,76,0.00,,,0.02,,2013-01-19 17:03:00,
2013-01-19 11:28:00,42.0,35.0,29.79,WSW,248,4.0,14.0,76,0.00,,,0.02,,2013-01-19 17:28:00,
2013-01-19 11:35:00,42.0,35.0,29.77,SW,229,2.0,15.0,76,0.00,,,0.02,,2013-01-19 17:35:00,
2013-01-19 11:47:00,42.0,35.0,29.77,SW,229,2.0,15.0,76,0.00,,,0.02,,2013-01-19 17:47:00,
2013-01-19 11:53:00,42.0,35.0,29.77,SW,229,2.0,15.0,76,0.00,,,0.02,,2013-01-19 17:53:00,
2013-01-19 12:13:00,41.0,34.0,29.74,SSW,203,2.0,14.0,76,0.00,,,0.02,,2013-01-19 18:13:00,
2013-01-19 12:35:00,42.0,35.0,29.73,WSW,247,4.0,20.0,77,0.00,,,0.02,,2013-01-19 18:35:00,
2013-01-19 12:45:00,42.0,35.0,29.73,WSW,247,4.0,20.0,77,0.00,,,0.02,,2013-01-19 18:45:00,
2013-01-19 12:55:00,42.0,35.0,29.72,WSW,249,7.0,21.0,77,0.00,,,0.02,,2013-01-19 18:55:00,
2013-01-19 13:08:00,42.0,35.0,29.71,SW,229,5.0,12.0,76,0.00,,,0.02,,2013-01-19 19:08:00,
2013-01-19 13:19:00,42.0,35.0,29.71,SW,229,5.0,12.0,76,0.00,,,0.02,,2013-01-19 19:19:00,
2013-01-19 13:29:00,43.0,36.0,29.70,WSW,241,4.0,16.0,76,0.00,,,0.01,,2013-01-19 19:29:00,
2013-01-19 13:39:00,43.0,36.0,29.70,WSW,257,4.0,12.0,75,0.00,,,0.01,,2013-01-19 19:39:00,
2013-01-19 13:45:00,43.0,36.0,29.70,WSW,257,4.0,12.0,75,0.00,,,0.01,,2013-01-19 19:45:00,
2013-01-19 13:54:00,43.0,36.0,29.69,WSW,253,4.0,10.0,75,0.00,,,0.01,,2013-01-19 19:54:00,
2013-01-19 14:09:00,44.0,36.0,29.70,WSW,251,7.0,20.0,74,0.00,,,0.01,,2013-01-19 20:09:00,
2013-01-19 14:18:00,44.0,36.0,29.70,WSW,251,7.0,20.0,74,0.00,,,0.01,,2013-01-19 20:18:00,
2013-01-19 14:25:00,44.0,37.0,29.70,WSW,253,7.0,20.0,75,0.00,,,0.01,,2013-01-19 20:25:00,
2013-01-19 14:45:00,44.0,36.0,29.70,West,262,6.0,23.0,74,0.00,,,0.01,,2013-01-19 20:45:00,
2013-01-19 14:54:00,45.0,37.0,29.70,WSW,246,7.0,24.0,73,0.00,,,0.00,,2013-01-19 20:54:00,
2013-01-19 15:06:00,45.0,37.0,29.69,WSW,251,5.0,17.0,74,0.00,,,0.00,,2013-01-19 21:06:00,
2013-01-19 15:14:00,45.0,37.0,29.69,WSW,251,5.0,17.0,74,0.00,,,0.00,,2013-01-19 21:14:00,
2013-01-19 15:25:00,45.0,37.0,29.70,West,259,5.0,16.0,73,0.00,,,0.00,,2013-01-19 21:25:00,
2013-01-19 15:43:00,45.0,37.0,29.70,West,265,4.0,13.0,74,0.00,,,0.00,,2013-01-19 21:43:00,
2013-01-19 15:56:00,46.0,38.0,29.71,WSW,253,6.0,14.0,73,0.00,,,0.00,,2013-01-19 21:56:00,
2013-01-19 16:13:00,46.0,37.0,29.72,West,259,5.0,13.0,72,0.00,,,0.00,,2013-01-19 22:13:00,
2013-01-19 16:26:00,46.0,37.0,29.72,WSW,256,5.0,13.0,72,0.00,,,0.00,,2013-01-19 22:26:00,
2013-01-19 16:34:00,46.0,37.0,29.72,WSW,251,4.0,12.0,72,0.00,,,0.00,,2013-01-19 22:34:00,
2013-01-19 16:46:00,46.0,37.0,29.72,WSW,251,4.0,12.0,72,0.00,,,0.00,,2013-01-19 22:46:00,
2013-01-19 16:54:00,45.0,37.0,29.71,West,262,3.0,7.0,73,0.00,,,0.00,,2013-01-19 22:54:00,
2013-01-19 17:13:00,45.0,37.0,29.72,West,272,7.0,13.0,74,0.00,,,0.00,,2013-01-19 23:13:00,
2013-01-19 17:25:00,44.0,36.0,29.72,WSW,257,6.0,14.0,74,0.00,,,0.00,,2013-01-19 23:25:00,
2013-01-19 17:34:00,44.0,36.0,29.72,WSW,247,8.0,13.0,74,0.00,,,0.00,,2013-01-19 23:34:00,
2013-01-19 17:45:00,44.0,36.0,29.72,WSW,247,8.0,13.0,74,0.00,,,0.00,,2013-01-19 23:45:00,
2013-01-19 17:59:00,44.0,36.0,29.73,WSW,251,7.0,16.0,73,0.00,,,0.00,,2013-01-19 23:59:00,
2013-01-19 18:08:00,43.0,35.0,29.74,WSW,258,5.0,13.0,73,0.00,,,0.00,,2013-01-20 00:08:00,
2013-01-19 18:15:00,43.0,35.0,29.74,WSW,258,5.0,13.0,73,0.00,,,0.00,,2013-01-20 00:15:00,
2013-01-19 18:25:00,42.0,34.0,29.73,WSW,258,6.0,13.0,74,0.00,,,0.00,,2013-01-20 00:25:00,
2013-01-19 18:35:00,42.0,34.0,29.73,West,268,7.0,13.0,74,0.00,,,0.00,,2013-01-20 00:35:00,
2013-01-19 18:45:00,42.0,34.0,29.73,West,268,7.0,13.0,74,0.00,,,0.00,,2013-01-20 00:45:00,
2013-01-19 18:53:00,42.0,34.0,29.74,West,264,8.0,14.0,74,0.00,,,0.00,,2013-01-20 00:53:00,
2013-01-19 19:04:00,42.0,33.0,29.75,West,281,15.0,22.0,71,0.00,,,0.00,,2013-01-20 01:04:00,
2013-01-19 19:19:00,42.0,33.0,29.75,West,281,15.0,22.0,71,0.00,,,0.00,,2013-01-20 01:19:00,
2013-01-19 19:25:00,42.0,33.0,29.76,West,272,13.0,30.0,69,0.00,,,0.00,,2013-01-20 01:25:00,
2013-01-19 19:36:00,42.0,33.0,29.76,West,273,16.0,31.0,69,0.00,,,0.00,,2013-01-20 01:36:00,
2013-01-19 19:45:00,42.0,33.0,29.76,West,273,16.0,31.0,69,0.00,,,0.00,,2013-01-20 01:45:00,
2013-01-19 19:57:00,41.0,32.0,29.76,West,279,17.0,26.0,71,0.00,,,0.00,,2013-01-20 01:57:00,
2013-01-19 20:07:00,41.0,32.0,29.76,West,279,17.0,26.0,71,0.00,,,0.00,,2013-01-20 02:07:00,
2013-01-19 20:14:00,41.0,32.0,29.76,West,279,17.0,26.0,71,0.00,,,0.00,,2013-01-20 02:14:00,
2013-01-19 20:25:00,41.0,32.0,29.77,West,276,17.0,32.0,69,0.00,,,0.00,,2013-01-20 02:25:00,
2013-01-19 20:35:00,40.0,26.0,29.77,West,264,24.0,38.0,56,0.00,,,0.00,,2013-01-20 02:35:00,
2013-01-19 20:44:00,40.0,26.0,29.77,West,264,24.0,38.0,56,0.00,,,0.00,,2013-01-20 02:44:00,
2013-01-19 20:55:00,39.0,25.0,29.77,West,264,26.0,48.0,57,0.00,,,0.00,,2013-01-20 02:55:00,
2013-01-19 21:08:00,37.0,21.0,29.79,West,276,21.0,33.0,53,0.00,,,0.00,,2013-01-20 03:08:00,
2013-01-19 21:14:00,37.0,21.0,29.79,West,276,21.0,33.0,53,0.00,,,0.00,,2013-01-20 03:14:00,
2013-01-19 21:24:00,36.0,21.0,29.80,West,280,27.0,45.0,53,0.00,,,0.00,,2013-01-20 03:24:00,
2013-01-19 21:38:00,32.0,18.0,29.82,West,280,23.0,40.0,55,0.00,,,0.00,,2013-01-20 03:38:00,
2013-01-19 21:45:00,32.0,18.0,29.82,West,280,23.0,40.0,55,0.00,,,0.00,,2013-01-20 03:45:00,
2013-01-19 21:54:00,30.0,15.0,29.83,West,277,26.0,45.0,52,0.00,,,0.00,,2013-01-20 03:54:00,
2013-01-19 22:05:00,27.0,11.0,29.85,West,279,18.0,41.0,50,0.00,,,0.00,,2013-01-20 04:05:00,
2013-01-19 22:14:00,27.0,11.0,29.85,West,279,18.0,41.0,50,0.00,,,0.00,,2013-01-20 04:14:00,
2013-01-19 22:25:00,27.0,12.0,29.87,West,272,18.0,33.0,53,0.00,,,0.00,,2013-01-20 04:25:00,
2013-01-19 22:35:00,26.0,13.0,29.88,West,281,20.0,30.0,58,0.00,,,0.00,,2013-01-20 04:35:00,
2013-01-19 22:44:00,26.0,13.0,29.88,West,281,20.0,30.0,58,0.00,,,0.00,,2013-01-20 04:44:00,
2013-01-19 22:54:00,25.0,13.0,29.89,WNW,284,20.0,32.0,59,0.00,,,0.00,,2013-01-20 04:54:00,
2013-01-19 23:04:00,24.0,13.0,29.91,West,281,17.0,39.0,61,0.00,,,0.00,,2013-01-20 05:04:00,
2013-01-19 23:12:00,24.0,13.0,29.91,West,281,17.0,39.0,61,0.00,,,0.00,,2013-01-20 05:12:00,
2013-01-19 23:22:00,23.0,12.0,29.92,West,271,17.0,31.0,61,0.00,,,0.00,,2013-01-20 05:22:00,
2013-01-19 23:32:00,22.0,10.0,29.94,West,278,14.0,35.0,60,0.00,,,0.00,,2013-01-20 05:32:00,
2013-01-19 23:42:00,22.0,10.0,29.94,West,278,14.0,35.0,60,0.00,,,0.00,,2013-01-20 05:42:00,
2013-01-19 23:53:00,22.0,11.0,29.95,West,278,14.0,30.0,61,0.00,,,0.00,,2013-01-20 05:53:00,